sensor_id;sensor_type;location;lat;lon;timestamp;P1;durP1;ratioP1;P2;durP2;ratioP2
62903;SDS011;49000;50.698;13.322;2022-11-20T00:01:10;13.27;;;5.73;;
62903;SDS011;49000;50.698;13.322;2022-11-20T00:03:37;11.53;;;5.83;;
62903;SDS011;49000;50.698;13.322;2022-11-20T00:06:03;12.30;;;5.80;;
62903;SDS011;49000;50.698;13.322;2022-11-20T00:08:30;12.13;;;5.03;;
62903;SDS011;49000;50.698;13.322;2022-11-20T00:10:56;12.97;;;5.93;;
62903;SDS011;49000;50.698;13.322;2022-11-20T00:13:21;9.53;;;5.33;;
62903;SDS011;49000;50.698;13.322;2022-11-20T00:15:47;12.50;;;5.40;;
62903;SDS011;49000;50.698;13.322;2022-11-20T00:18:12;9.13;;;4.73;;
62903;SDS011;49000;50.698;13.322;2022-11-20T00:20:38;11.03;;;5.70;;
62903;SDS011;49000;50.698;13.322;2022-11-20T00:23:04;10.90;;;5.10;;
62903;SDS011;49000;50.698;13.322;2022-11-20T00:25:30;11.33;;;5.43;;
62903;SDS011;49000;50.698;13.322;2022-11-20T00:27:56;10.17;;;5.53;;
62903;SDS011;49000;50.698;13.322;2022-11-20T00:30:21;11.90;;;5.70;;
62903;SDS011;49000;50.698;13.322;2022-11-20T00:32:47;11.03;;;5.00;;
62903;SDS011;49000;50.698;13.322;2022-11-20T00:35:12;13.17;;;6.00;;
62903;SDS011;49000;50.698;13.322;2022-11-20T00:37:38;9.70;;;5.73;;
62903;SDS011;49000;50.698;13.322;2022-11-20T00:40:04;9.40;;;4.97;;
62903;SDS011;49000;50.698;13.322;2022-11-20T00:42:29;9.23;;;4.97;;
62903;SDS011;49000;50.698;13.322;2022-11-20T00:44:57;10.20;;;4.70;;
62903;SDS011;49000;50.698;13.322;2022-11-20T00:47:23;10.70;;;4.83;;
62903;SDS011;49000;50.698;13.322;2022-11-20T00:49:48;10.43;;;5.07;;
62903;SDS011;49000;50.698;13.322;2022-11-20T00:52:14;11.43;;;5.77;;
62903;SDS011;49000;50.698;13.322;2022-11-20T00:54:39;10.77;;;5.10;;
62903;SDS011;49000;50.698;13.322;2022-11-20T00:57:05;11.27;;;5.70;;
62903;SDS011;49000;50.698;13.322;2022-11-20T00:59:30;10.57;;;5.03;;
62903;SDS011;49000;50.698;13.322;2022-11-20T01:01:55;13.83;;;5.50;;
62903;SDS011;49000;50.698;13.322;2022-11-20T01:04:21;11.27;;;5.63;;
62903;SDS011;49000;50.698;13.322;2022-11-20T01:06:46;11.27;;;5.67;;
62903;SDS011;49000;50.698;13.322;2022-11-20T01:09:13;9.70;;;4.83;;
62903;SDS011;49000;50.698;13.322;2022-11-20T01:11:41;10.93;;;5.27;;
62903;SDS011;49000;50.698;13.322;2022-11-20T01:14:09;11.97;;;4.93;;
62903;SDS011;49000;50.698;13.322;2022-11-20T01:16:40;9.83;;;4.67;;
62903;SDS011;49000;50.698;13.322;2022-11-20T01:19:09;9.57;;;5.07;;
62903;SDS011;49000;50.698;13.322;2022-11-20T01:21:38;8.97;;;4.43;;
62903;SDS011;49000;50.698;13.322;2022-11-20T01:24:05;9.53;;;4.97;;
62903;SDS011;49000;50.698;13.322;2022-11-20T01:26:33;9.67;;;4.53;;
62903;SDS011;49000;50.698;13.322;2022-11-20T01:29:00;10.63;;;4.50;;
62903;SDS011;49000;50.698;13.322;2022-11-20T01:31:28;13.30;;;4.70;;
62903;SDS011;49000;50.698;13.322;2022-11-20T01:33:56;10.43;;;4.27;;
62903;SDS011;49000;50.698;13.322;2022-11-20T01:36:24;9.87;;;4.67;;
62903;SDS011;49000;50.698;13.322;2022-11-20T01:38:51;12.37;;;5.03;;
62903;SDS011;49000;50.698;13.322;2022-11-20T01:41:18;8.67;;;4.37;;
62903;SDS011;49000;50.698;13.322;2022-11-20T01:44:03;13.80;;;4.70;;
62903;SDS011;49000;50.698;13.322;2022-11-20T01:46:30;10.90;;;4.80;;
62903;SDS011;49000;50.698;13.322;2022-11-20T01:51:53;13.13;;;5.10;;
62903;SDS011;49000;50.698;13.322;2022-11-20T01:54:36;11.83;;;4.67;;
62903;SDS011;49000;50.698;13.322;2022-11-20T01:57:08;10.47;;;5.70;;
62903;SDS011;49000;50.698;13.322;2022-11-20T01:59:38;13.57;;;5.30;;
62903;SDS011;49000;50.698;13.322;2022-11-20T02:02:08;12.07;;;5.13;;
62903;SDS011;49000;50.698;13.322;2022-11-20T02:04:34;13.27;;;5.77;;
62903;SDS011;49000;50.698;13.322;2022-11-20T02:07:00;13.20;;;5.70;;
62903;SDS011;49000;50.698;13.322;2022-11-20T02:09:27;12.07;;;5.63;;
62903;SDS011;49000;50.698;13.322;2022-11-20T02:11:53;13.60;;;6.00;;
62903;SDS011;49000;50.698;13.322;2022-11-20T02:14:20;13.13;;;5.97;;
62903;SDS011;49000;50.698;13.322;2022-11-20T02:16:48;14.80;;;6.27;;
62903;SDS011;49000;50.698;13.322;2022-11-20T02:19:35;12.97;;;6.17;;
62903;SDS011;49000;50.698;13.322;2022-11-20T02:24:29;14.37;;;5.17;;
62903;SDS011;49000;50.698;13.322;2022-11-20T02:26:59;12.27;;;5.90;;
62903;SDS011;49000;50.698;13.322;2022-11-20T02:29:50;14.97;;;6.70;;
62903;SDS011;49000;50.698;13.322;2022-11-20T02:32:25;12.37;;;5.57;;
62903;SDS011;49000;50.698;13.322;2022-11-20T02:34:52;11.60;;;5.23;;
62903;SDS011;49000;50.698;13.322;2022-11-20T02:37:18;14.63;;;6.00;;
62903;SDS011;49000;50.698;13.322;2022-11-20T02:39:46;13.63;;;5.17;;
62903;SDS011;49000;50.698;13.322;2022-11-20T02:42:14;10.73;;;5.00;;
62903;SDS011;49000;50.698;13.322;2022-11-20T02:44:39;14.40;;;5.50;;
62903;SDS011;49000;50.698;13.322;2022-11-20T02:47:05;14.63;;;5.77;;
62903;SDS011;49000;50.698;13.322;2022-11-20T02:49:31;16.57;;;5.80;;
62903;SDS011;49000;50.698;13.322;2022-11-20T02:51:57;15.20;;;6.00;;
62903;SDS011;49000;50.698;13.322;2022-11-20T02:54:22;13.30;;;5.43;;
62903;SDS011;49000;50.698;13.322;2022-11-20T02:56:48;11.47;;;5.67;;
62903;SDS011;49000;50.698;13.322;2022-11-20T02:59:14;12.20;;;5.10;;
62903;SDS011;49000;50.698;13.322;2022-11-20T03:01:39;10.17;;;4.83;;
62903;SDS011;49000;50.698;13.322;2022-11-20T03:04:05;10.77;;;5.37;;
62903;SDS011;49000;50.698;13.322;2022-11-20T03:06:31;13.30;;;5.97;;
62903;SDS011;49000;50.698;13.322;2022-11-20T03:08:56;13.40;;;5.37;;
62903;SDS011;49000;50.698;13.322;2022-11-20T03:11:22;16.23;;;5.97;;
62903;SDS011;49000;50.698;13.322;2022-11-20T03:13:48;13.70;;;6.10;;
62903;SDS011;49000;50.698;13.322;2022-11-20T03:16:15;12.07;;;5.73;;
62903;SDS011;49000;50.698;13.322;2022-11-20T03:18:42;12.37;;;5.80;;
62903;SDS011;49000;50.698;13.322;2022-11-20T03:21:09;15.83;;;6.53;;
62903;SDS011;49000;50.698;13.322;2022-11-20T03:23:35;16.33;;;6.73;;
62903;SDS011;49000;50.698;13.322;2022-11-20T03:28:38;14.83;;;6.63;;
62903;SDS011;49000;50.698;13.322;2022-11-20T03:31:06;13.40;;;5.93;;
62903;SDS011;49000;50.698;13.322;2022-11-20T03:33:33;14.23;;;6.20;;
62903;SDS011;49000;50.698;13.322;2022-11-20T03:36:02;16.10;;;6.80;;
62903;SDS011;49000;50.698;13.322;2022-11-20T03:38:32;13.70;;;6.30;;
62903;SDS011;49000;50.698;13.322;2022-11-20T03:40:59;16.50;;;6.43;;
62903;SDS011;49000;50.698;13.322;2022-11-20T03:43:29;12.77;;;5.93;;
62903;SDS011;49000;50.698;13.322;2022-11-20T03:45:55;15.47;;;6.33;;
62903;SDS011;49000;50.698;13.322;2022-11-20T03:48:21;15.50;;;7.57;;
62903;SDS011;49000;50.698;13.322;2022-11-20T03:50:47;16.57;;;6.10;;
62903;SDS011;49000;50.698;13.322;2022-11-20T03:53:13;18.13;;;7.23;;
62903;SDS011;49000;50.698;13.322;2022-11-20T03:55:39;15.00;;;6.37;;
62903;SDS011;49000;50.698;13.322;2022-11-20T03:58:04;15.80;;;7.17;;
62903;SDS011;49000;50.698;13.322;2022-11-20T04:00:30;15.03;;;6.43;;
62903;SDS011;49000;50.698;13.322;2022-11-20T04:02:58;17.63;;;7.73;;
62903;SDS011;49000;50.698;13.322;2022-11-20T04:05:25;16.47;;;7.30;;
62903;SDS011;49000;50.698;13.322;2022-11-20T04:07:50;17.00;;;7.33;;
62903;SDS011;49000;50.698;13.322;2022-11-20T04:10:16;15.43;;;7.07;;
62903;SDS011;49000;50.698;13.322;2022-11-20T04:12:42;18.03;;;7.30;;
62903;SDS011;49000;50.698;13.322;2022-11-20T04:15:07;16.70;;;7.50;;
62903;SDS011;49000;50.698;13.322;2022-11-20T04:17:33;17.77;;;7.50;;
62903;SDS011;49000;50.698;13.322;2022-11-20T04:19:59;16.37;;;7.13;;
62903;SDS011;49000;50.698;13.322;2022-11-20T04:22:24;15.03;;;7.30;;
62903;SDS011;49000;50.698;13.322;2022-11-20T04:24:50;19.50;;;7.90;;
62903;SDS011;49000;50.698;13.322;2022-11-20T04:27:15;17.27;;;7.33;;
62903;SDS011;49000;50.698;13.322;2022-11-20T04:29:41;20.67;;;7.63;;
62903;SDS011;49000;50.698;13.322;2022-11-20T04:32:06;17.73;;;7.57;;
62903;SDS011;49000;50.698;13.322;2022-11-20T04:34:32;16.33;;;7.03;;
62903;SDS011;49000;50.698;13.322;2022-11-20T04:36:57;18.60;;;7.93;;
62903;SDS011;49000;50.698;13.322;2022-11-20T04:39:23;19.53;;;7.37;;
62903;SDS011;49000;50.698;13.322;2022-11-20T04:41:48;13.87;;;6.43;;
62903;SDS011;49000;50.698;13.322;2022-11-20T04:44:34;15.33;;;6.97;;
62903;SDS011;49000;50.698;13.322;2022-11-20T04:46:59;16.10;;;7.20;;
62903;SDS011;49000;50.698;13.322;2022-11-20T04:49:25;15.63;;;7.60;;
62903;SDS011;49000;50.698;13.322;2022-11-20T04:51:52;17.17;;;7.80;;
62903;SDS011;49000;50.698;13.322;2022-11-20T04:54:18;16.33;;;7.60;;
62903;SDS011;49000;50.698;13.322;2022-11-20T04:56:46;18.93;;;7.70;;
62903;SDS011;49000;50.698;13.322;2022-11-20T04:59:12;13.73;;;6.60;;
62903;SDS011;49000;50.698;13.322;2022-11-20T05:01:38;18.37;;;7.07;;
62903;SDS011;49000;50.698;13.322;2022-11-20T05:04:03;19.33;;;7.97;;
62903;SDS011;49000;50.698;13.322;2022-11-20T05:06:29;21.17;;;8.60;;
62903;SDS011;49000;50.698;13.322;2022-11-20T05:08:54;15.57;;;6.63;;
62903;SDS011;49000;50.698;13.322;2022-11-20T05:11:20;17.93;;;8.47;;
62903;SDS011;49000;50.698;13.322;2022-11-20T05:13:46;17.73;;;7.67;;
62903;SDS011;49000;50.698;13.322;2022-11-20T05:16:14;17.77;;;6.87;;
62903;SDS011;49000;50.698;13.322;2022-11-20T05:18:41;19.00;;;7.23;;
62903;SDS011;49000;50.698;13.322;2022-11-20T05:21:08;18.67;;;7.67;;
62903;SDS011;49000;50.698;13.322;2022-11-20T05:23:34;18.57;;;8.27;;
62903;SDS011;49000;50.698;13.322;2022-11-20T05:26:01;20.77;;;8.43;;
62903;SDS011;49000;50.698;13.322;2022-11-20T05:28:27;15.77;;;6.63;;
62903;SDS011;49000;50.698;13.322;2022-11-20T05:30:53;19.47;;;8.33;;
62903;SDS011;49000;50.698;13.322;2022-11-20T05:33:19;17.97;;;7.60;;
62903;SDS011;49000;50.698;13.322;2022-11-20T05:35:45;16.33;;;7.13;;
62903;SDS011;49000;50.698;13.322;2022-11-20T05:38:11;20.20;;;7.37;;
62903;SDS011;49000;50.698;13.322;2022-11-20T05:40:36;17.57;;;7.87;;
62903;SDS011;49000;50.698;13.322;2022-11-20T05:43:02;12.20;;;5.53;;
62903;SDS011;49000;50.698;13.322;2022-11-20T05:45:27;16.93;;;7.20;;
62903;SDS011;49000;50.698;13.322;2022-11-20T05:47:53;12.53;;;6.17;;
62903;SDS011;49000;50.698;13.322;2022-11-20T05:50:18;15.77;;;6.90;;
62903;SDS011;49000;50.698;13.322;2022-11-20T05:52:44;15.37;;;6.47;;
62903;SDS011;49000;50.698;13.322;2022-11-20T05:55:10;14.50;;;6.27;;
62903;SDS011;49000;50.698;13.322;2022-11-20T05:57:35;13.43;;;5.90;;
62903;SDS011;49000;50.698;13.322;2022-11-20T06:00:02;14.40;;;5.70;;
62903;SDS011;49000;50.698;13.322;2022-11-20T06:02:28;13.73;;;5.50;;
62903;SDS011;49000;50.698;13.322;2022-11-20T06:04:53;14.07;;;5.83;;
62903;SDS011;49000;50.698;13.322;2022-11-20T06:07:19;11.80;;;5.40;;
62903;SDS011;49000;50.698;13.322;2022-11-20T06:09:44;15.07;;;6.60;;
62903;SDS011;49000;50.698;13.322;2022-11-20T06:12:10;14.00;;;5.63;;
62903;SDS011;49000;50.698;13.322;2022-11-20T06:14:35;14.73;;;6.00;;
62903;SDS011;49000;50.698;13.322;2022-11-20T06:17:01;14.47;;;5.73;;
62903;SDS011;49000;50.698;13.322;2022-11-20T06:19:26;9.20;;;4.93;;
62903;SDS011;49000;50.698;13.322;2022-11-20T06:21:52;14.17;;;6.53;;
62903;SDS011;49000;50.698;13.322;2022-11-20T06:24:17;16.53;;;6.03;;
62903;SDS011;49000;50.698;13.322;2022-11-20T06:26:43;18.50;;;6.03;;
62903;SDS011;49000;50.698;13.322;2022-11-20T06:29:09;13.10;;;5.63;;
62903;SDS011;49000;50.698;13.322;2022-11-20T06:31:35;13.30;;;5.83;;
62903;SDS011;49000;50.698;13.322;2022-11-20T06:34:03;13.10;;;5.97;;
62903;SDS011;49000;50.698;13.322;2022-11-20T06:36:29;15.33;;;6.50;;
62903;SDS011;49000;50.698;13.322;2022-11-20T06:38:55;12.27;;;6.10;;
62903;SDS011;49000;50.698;13.322;2022-11-20T06:41:20;10.03;;;4.97;;
62903;SDS011;49000;50.698;13.322;2022-11-20T06:43:47;13.70;;;5.70;;
62903;SDS011;49000;50.698;13.322;2022-11-20T06:46:13;16.83;;;6.10;;
62903;SDS011;49000;50.698;13.322;2022-11-20T06:48:42;10.43;;;5.03;;
62903;SDS011;49000;50.698;13.322;2022-11-20T06:51:08;14.00;;;6.73;;
62903;SDS011;49000;50.698;13.322;2022-11-20T06:53:34;15.43;;;6.40;;
62903;SDS011;49000;50.698;13.322;2022-11-20T06:56:00;12.90;;;5.77;;
62903;SDS011;49000;50.698;13.322;2022-11-20T06:58:26;11.73;;;5.33;;
62903;SDS011;49000;50.698;13.322;2022-11-20T07:00:53;12.67;;;5.83;;
62903;SDS011;49000;50.698;13.322;2022-11-20T07:03:19;14.20;;;6.10;;
62903;SDS011;49000;50.698;13.322;2022-11-20T07:05:44;11.37;;;5.53;;
62903;SDS011;49000;50.698;13.322;2022-11-20T07:08:11;14.57;;;5.63;;
62903;SDS011;49000;50.698;13.322;2022-11-20T07:10:36;15.60;;;6.73;;
62903;SDS011;49000;50.698;13.322;2022-11-20T07:13:02;14.20;;;6.20;;
62903;SDS011;49000;50.698;13.322;2022-11-20T07:15:28;15.60;;;5.60;;
62903;SDS011;49000;50.698;13.322;2022-11-20T07:17:53;13.13;;;6.30;;
62903;SDS011;49000;50.698;13.322;2022-11-20T07:20:19;14.07;;;5.97;;
62903;SDS011;49000;50.698;13.322;2022-11-20T07:22:44;15.03;;;5.70;;
62903;SDS011;49000;50.698;13.322;2022-11-20T07:25:10;14.77;;;6.03;;
62903;SDS011;49000;50.698;13.322;2022-11-20T07:27:35;12.13;;;5.67;;
62903;SDS011;49000;50.698;13.322;2022-11-20T07:30:02;15.23;;;6.60;;
62903;SDS011;49000;50.698;13.322;2022-11-20T07:32:28;12.33;;;6.40;;
62903;SDS011;49000;50.698;13.322;2022-11-20T07:34:54;16.13;;;6.33;;
62903;SDS011;49000;50.698;13.322;2022-11-20T07:37:20;12.57;;;6.20;;
62903;SDS011;49000;50.698;13.322;2022-11-20T07:39:46;12.17;;;6.10;;
62903;SDS011;49000;50.698;13.322;2022-11-20T07:42:11;13.77;;;6.47;;
62903;SDS011;49000;50.698;13.322;2022-11-20T07:44:37;15.27;;;7.17;;
62903;SDS011;49000;50.698;13.322;2022-11-20T07:47:03;14.17;;;6.77;;
62903;SDS011;49000;50.698;13.322;2022-11-20T07:49:28;13.43;;;6.17;;
62903;SDS011;49000;50.698;13.322;2022-11-20T07:51:54;12.87;;;7.03;;
62903;SDS011;49000;50.698;13.322;2022-11-20T07:54:20;17.17;;;6.40;;
62903;SDS011;49000;50.698;13.322;2022-11-20T07:56:46;14.87;;;6.50;;
62903;SDS011;49000;50.698;13.322;2022-11-20T07:59:12;12.87;;;6.10;;
62903;SDS011;49000;50.698;13.322;2022-11-20T08:01:38;13.93;;;6.70;;
62903;SDS011;49000;50.698;13.322;2022-11-20T08:04:04;12.50;;;6.30;;
62903;SDS011;49000;50.698;13.322;2022-11-20T08:06:30;11.63;;;5.80;;
62903;SDS011;49000;50.698;13.322;2022-11-20T08:08:56;13.80;;;6.07;;
62903;SDS011;49000;50.698;13.322;2022-11-20T08:11:21;11.73;;;5.57;;
62903;SDS011;49000;50.698;13.322;2022-11-20T08:14:05;11.73;;;5.43;;
62903;SDS011;49000;50.698;13.322;2022-11-20T08:16:37;9.07;;;5.00;;
62903;SDS011;49000;50.698;13.322;2022-11-20T08:19:03;11.67;;;5.10;;
62903;SDS011;49000;50.698;13.322;2022-11-20T08:21:29;10.50;;;5.10;;
62903;SDS011;49000;50.698;13.322;2022-11-20T08:23:56;9.77;;;4.53;;
62903;SDS011;49000;50.698;13.322;2022-11-20T08:26:22;8.80;;;4.10;;
62903;SDS011;49000;50.698;13.322;2022-11-20T08:28:48;11.23;;;4.20;;
62903;SDS011;49000;50.698;13.322;2022-11-20T08:31:14;10.17;;;5.53;;
62903;SDS011;49000;50.698;13.322;2022-11-20T08:33:39;12.30;;;4.90;;
62903;SDS011;49000;50.698;13.322;2022-11-20T08:36:05;8.90;;;4.10;;
62903;SDS011;49000;50.698;13.322;2022-11-20T08:38:31;11.10;;;4.20;;
62903;SDS011;49000;50.698;13.322;2022-11-20T08:40:58;8.87;;;4.33;;
62903;SDS011;49000;50.698;13.322;2022-11-20T08:43:44;9.57;;;3.80;;
62903;SDS011;49000;50.698;13.322;2022-11-20T08:46:09;10.67;;;4.60;;
62903;SDS011;49000;50.698;13.322;2022-11-20T08:48:35;9.80;;;3.90;;
62903;SDS011;49000;50.698;13.322;2022-11-20T08:51:01;10.73;;;3.90;;
62903;SDS011;49000;50.698;13.322;2022-11-20T08:53:27;11.40;;;4.53;;
62903;SDS011;49000;50.698;13.322;2022-11-20T08:55:52;7.33;;;3.53;;
62903;SDS011;49000;50.698;13.322;2022-11-20T08:58:18;10.77;;;4.50;;
62903;SDS011;49000;50.698;13.322;2022-11-20T09:00:44;7.23;;;3.90;;
62903;SDS011;49000;50.698;13.322;2022-11-20T09:03:09;8.87;;;3.93;;
62903;SDS011;49000;50.698;13.322;2022-11-20T09:05:35;10.60;;;4.07;;
62903;SDS011;49000;50.698;13.322;2022-11-20T09:08:00;6.97;;;3.77;;
62903;SDS011;49000;50.698;13.322;2022-11-20T09:10:26;9.33;;;4.63;;
62903;SDS011;49000;50.698;13.322;2022-11-20T09:12:52;9.47;;;4.20;;
62903;SDS011;49000;50.698;13.322;2022-11-20T09:15:19;7.03;;;3.63;;
62903;SDS011;49000;50.698;13.322;2022-11-20T09:17:52;8.13;;;3.70;;
62903;SDS011;49000;50.698;13.322;2022-11-20T09:20:23;8.27;;;3.93;;
62903;SDS011;49000;50.698;13.322;2022-11-20T09:22:49;8.33;;;3.63;;
62903;SDS011;49000;50.698;13.322;2022-11-20T09:25:14;6.40;;;3.43;;
62903;SDS011;49000;50.698;13.322;2022-11-20T09:27:40;6.47;;;3.57;;
62903;SDS011;49000;50.698;13.322;2022-11-20T09:30:10;6.17;;;3.10;;
62903;SDS011;49000;50.698;13.322;2022-11-20T09:32:38;5.60;;;2.83;;
62903;SDS011;49000;50.698;13.322;2022-11-20T09:35:04;7.23;;;3.23;;
62903;SDS011;49000;50.698;13.322;2022-11-20T09:37:29;5.23;;;2.77;;
62903;SDS011;49000;50.698;13.322;2022-11-20T09:39:55;6.33;;;2.93;;
62903;SDS011;49000;50.698;13.322;2022-11-20T09:42:27;5.13;;;2.90;;
62903;SDS011;49000;50.698;13.322;2022-11-20T09:45:05;9.77;;;3.87;;
62903;SDS011;49000;50.698;13.322;2022-11-20T09:47:39;19.37;;;8.57;;
62903;SDS011;49000;50.698;13.322;2022-11-20T09:53:24;12.47;;;6.37;;
62903;SDS011;49000;50.698;13.322;2022-11-20T09:56:03;6.70;;;4.03;;
62903;SDS011;49000;50.698;13.322;2022-11-20T10:01:21;6.57;;;3.50;;
62903;SDS011;49000;50.698;13.322;2022-11-20T10:09:25;6.30;;;3.63;;
62903;SDS011;49000;50.698;13.322;2022-11-20T10:17:31;6.27;;;3.63;;
62903;SDS011;49000;50.698;13.322;2022-11-20T10:20:12;7.63;;;3.47;;
62903;SDS011;49000;50.698;13.322;2022-11-20T10:25:41;6.07;;;3.57;;
62903;SDS011;49000;50.698;13.322;2022-11-20T10:30:36;5.27;;;3.10;;
62903;SDS011;49000;50.698;13.322;2022-11-20T10:33:06;5.13;;;3.03;;
62903;SDS011;49000;50.698;13.322;2022-11-20T10:35:45;5.93;;;3.03;;
62903;SDS011;49000;50.698;13.322;2022-11-20T10:38:25;5.97;;;3.13;;
62903;SDS011;49000;50.698;13.322;2022-11-20T10:41:05;5.03;;;3.00;;
62903;SDS011;49000;50.698;13.322;2022-11-20T10:44:01;7.90;;;3.50;;
62903;SDS011;49000;50.698;13.322;2022-11-20T10:49:25;5.43;;;2.83;;
62903;SDS011;49000;50.698;13.322;2022-11-20T10:52:09;6.93;;;3.53;;
62903;SDS011;49000;50.698;13.322;2022-11-20T11:00:10;6.30;;;3.27;;
62903;SDS011;49000;50.698;13.322;2022-11-20T11:02:44;7.07;;;3.83;;
62903;SDS011;49000;50.698;13.322;2022-11-20T11:05:16;7.43;;;4.17;;
62903;SDS011;49000;50.698;13.322;2022-11-20T11:07:45;7.17;;;4.03;;
62903;SDS011;49000;50.698;13.322;2022-11-20T11:12:57;8.70;;;4.20;;
62903;SDS011;49000;50.698;13.322;2022-11-20T11:15:27;6.17;;;4.17;;
62903;SDS011;49000;50.698;13.322;2022-11-20T11:18:04;6.53;;;4.03;;
62903;SDS011;49000;50.698;13.322;2022-11-20T11:20:30;7.23;;;4.20;;
62903;SDS011;49000;50.698;13.322;2022-11-20T11:22:57;7.37;;;4.53;;
62903;SDS011;49000;50.698;13.322;2022-11-20T11:27:53;7.27;;;4.20;;
62903;SDS011;49000;50.698;13.322;2022-11-20T11:30:21;6.80;;;4.00;;
62903;SDS011;49000;50.698;13.322;2022-11-20T11:32:47;6.80;;;4.17;;
62903;SDS011;49000;50.698;13.322;2022-11-20T11:37:49;6.67;;;3.60;;
62903;SDS011;49000;50.698;13.322;2022-11-20T11:40:16;8.00;;;4.40;;
62903;SDS011;49000;50.698;13.322;2022-11-20T11:42:46;7.60;;;4.43;;
62903;SDS011;49000;50.698;13.322;2022-11-20T11:45:19;7.70;;;4.60;;
62903;SDS011;49000;50.698;13.322;2022-11-20T11:47:47;9.57;;;5.00;;
62903;SDS011;49000;50.698;13.322;2022-11-20T11:50:26;9.83;;;5.47;;
62903;SDS011;49000;50.698;13.322;2022-11-20T11:55:51;10.13;;;5.10;;
62903;SDS011;49000;50.698;13.322;2022-11-20T11:58:28;11.63;;;5.90;;
62903;SDS011;49000;50.698;13.322;2022-11-20T12:01:07;10.10;;;5.80;;
62903;SDS011;49000;50.698;13.322;2022-11-20T12:03:55;8.87;;;5.40;;
62903;SDS011;49000;50.698;13.322;2022-11-20T12:06:32;11.13;;;5.83;;
62903;SDS011;49000;50.698;13.322;2022-11-20T12:09:04;10.63;;;5.97;;
62903;SDS011;49000;50.698;13.322;2022-11-20T12:14:18;10.17;;;5.90;;
62903;SDS011;49000;50.698;13.322;2022-11-20T12:16:50;12.20;;;6.47;;
62903;SDS011;49000;50.698;13.322;2022-11-20T12:19:18;10.53;;;5.70;;
62903;SDS011;49000;50.698;13.322;2022-11-20T12:21:47;9.97;;;5.80;;
62903;SDS011;49000;50.698;13.322;2022-11-20T12:24:37;12.00;;;6.80;;
62903;SDS011;49000;50.698;13.322;2022-11-20T12:27:32;11.60;;;6.40;;
62903;SDS011;49000;50.698;13.322;2022-11-20T12:30:07;11.47;;;6.57;;
62903;SDS011;49000;50.698;13.322;2022-11-20T12:32:40;12.60;;;6.90;;
62903;SDS011;49000;50.698;13.322;2022-11-20T12:35:20;15.17;;;7.77;;
62903;SDS011;49000;50.698;13.322;2022-11-20T12:38:18;12.43;;;6.33;;
62903;SDS011;49000;50.698;13.322;2022-11-20T13:01:58;21.73;;;9.53;;
62903;SDS011;49000;50.698;13.322;2022-11-20T13:07:05;16.90;;;8.70;;
62903;SDS011;49000;50.698;13.322;2022-11-20T13:09:42;19.47;;;9.50;;
62903;SDS011;49000;50.698;13.322;2022-11-20T13:12:15;19.70;;;10.00;;
62903;SDS011;49000;50.698;13.322;2022-11-20T13:14:58;18.57;;;9.40;;
62903;SDS011;49000;50.698;13.322;2022-11-20T13:17:46;20.27;;;8.93;;
62903;SDS011;49000;50.698;13.322;2022-11-20T13:20:20;18.20;;;8.33;;
62903;SDS011;49000;50.698;13.322;2022-11-20T13:22:49;18.13;;;9.13;;
62903;SDS011;49000;50.698;13.322;2022-11-20T13:25:34;18.43;;;9.00;;
62903;SDS011;49000;50.698;13.322;2022-11-20T13:30:36;16.13;;;7.80;;
62903;SDS011;49000;50.698;13.322;2022-11-20T13:35:57;19.43;;;8.80;;
62903;SDS011;49000;50.698;13.322;2022-11-20T13:38:23;17.00;;;8.43;;
62903;SDS011;49000;50.698;13.322;2022-11-20T13:43:49;16.70;;;8.13;;
62903;SDS011;49000;50.698;13.322;2022-11-20T13:46:14;19.53;;;7.87;;
62903;SDS011;49000;50.698;13.322;2022-11-20T13:48:41;15.87;;;8.13;;
62903;SDS011;49000;50.698;13.322;2022-11-20T13:51:27;15.70;;;7.73;;
62903;SDS011;49000;50.698;13.322;2022-11-20T13:54:20;18.23;;;8.60;;
62903;SDS011;49000;50.698;13.322;2022-11-20T13:59:49;17.23;;;8.57;;
62903;SDS011;49000;50.698;13.322;2022-11-20T14:02:23;16.30;;;8.30;;
62903;SDS011;49000;50.698;13.322;2022-11-20T14:04:52;13.57;;;7.13;;
62903;SDS011;49000;50.698;13.322;2022-11-20T14:07:21;17.60;;;8.07;;
62903;SDS011;49000;50.698;13.322;2022-11-20T14:09:53;17.50;;;8.17;;
62903;SDS011;49000;50.698;13.322;2022-11-20T14:12:22;16.40;;;8.63;;
62903;SDS011;49000;50.698;13.322;2022-11-20T14:14:52;17.53;;;8.10;;
62903;SDS011;49000;50.698;13.322;2022-11-20T14:19:54;15.07;;;7.90;;
62903;SDS011;49000;50.698;13.322;2022-11-20T14:22:24;16.40;;;8.37;;
62903;SDS011;49000;50.698;13.322;2022-11-20T14:25:01;15.83;;;7.83;;
62903;SDS011;49000;50.698;13.322;2022-11-20T14:27:38;14.37;;;7.13;;
62903;SDS011;49000;50.698;13.322;2022-11-20T14:30:05;16.53;;;8.20;;
62903;SDS011;49000;50.698;13.322;2022-11-20T14:32:42;13.73;;;7.13;;
62903;SDS011;49000;50.698;13.322;2022-11-20T14:35:10;14.00;;;7.33;;
62903;SDS011;49000;50.698;13.322;2022-11-20T14:37:59;15.17;;;7.57;;
62903;SDS011;49000;50.698;13.322;2022-11-20T14:43:01;13.20;;;7.47;;
62903;SDS011;49000;50.698;13.322;2022-11-20T14:45:40;13.47;;;6.83;;
62903;SDS011;49000;50.698;13.322;2022-11-20T14:48:08;13.93;;;6.87;;
62903;SDS011;49000;50.698;13.322;2022-11-20T14:50:34;12.60;;;7.03;;
62903;SDS011;49000;50.698;13.322;2022-11-20T14:53:01;17.03;;;8.17;;
62903;SDS011;49000;50.698;13.322;2022-11-20T14:55:31;14.73;;;7.30;;
62903;SDS011;49000;50.698;13.322;2022-11-20T14:58:03;13.93;;;7.33;;
62903;SDS011;49000;50.698;13.322;2022-11-20T15:00:53;12.33;;;6.13;;
62903;SDS011;49000;50.698;13.322;2022-11-20T15:03:20;12.67;;;6.17;;
62903;SDS011;49000;50.698;13.322;2022-11-20T15:05:47;10.33;;;5.63;;
62903;SDS011;49000;50.698;13.322;2022-11-20T15:08:14;10.23;;;5.60;;
62903;SDS011;49000;50.698;13.322;2022-11-20T15:10:47;11.27;;;6.50;;
62903;SDS011;49000;50.698;13.322;2022-11-20T15:13:25;14.23;;;6.57;;
62903;SDS011;49000;50.698;13.322;2022-11-20T15:15:55;11.53;;;6.47;;
62903;SDS011;49000;50.698;13.322;2022-11-20T15:18:22;10.70;;;6.20;;
62903;SDS011;49000;50.698;13.322;2022-11-20T15:20:54;11.67;;;6.07;;
62903;SDS011;49000;50.698;13.322;2022-11-20T15:23:21;11.10;;;6.30;;
62903;SDS011;49000;50.698;13.322;2022-11-20T15:25:47;13.73;;;7.27;;
62903;SDS011;49000;50.698;13.322;2022-11-20T15:28:18;9.37;;;5.93;;
62903;SDS011;49000;50.698;13.322;2022-11-20T15:30:53;12.60;;;6.50;;
62903;SDS011;49000;50.698;13.322;2022-11-20T15:33:20;11.17;;;6.47;;
62903;SDS011;49000;50.698;13.322;2022-11-20T15:35:46;17.43;;;10.03;;
62903;SDS011;49000;50.698;13.322;2022-11-20T15:38:11;18.33;;;9.80;;
62903;SDS011;49000;50.698;13.322;2022-11-20T15:40:37;12.30;;;6.73;;
62903;SDS011;49000;50.698;13.322;2022-11-20T15:43:02;11.63;;;5.80;;
62903;SDS011;49000;50.698;13.322;2022-11-20T15:45:29;10.37;;;5.83;;
62903;SDS011;49000;50.698;13.322;2022-11-20T15:48:14;10.27;;;5.53;;
62903;SDS011;49000;50.698;13.322;2022-11-20T15:50:59;10.00;;;5.83;;
62903;SDS011;49000;50.698;13.322;2022-11-20T15:53:36;11.80;;;5.47;;
62903;SDS011;49000;50.698;13.322;2022-11-20T15:56:05;9.77;;;5.40;;
62903;SDS011;49000;50.698;13.322;2022-11-20T15:58:34;8.90;;;5.37;;
62903;SDS011;49000;50.698;13.322;2022-11-20T16:00:59;8.97;;;5.20;;
62903;SDS011;49000;50.698;13.322;2022-11-20T16:03:25;9.40;;;4.93;;
62903;SDS011;49000;50.698;13.322;2022-11-20T16:05:50;9.33;;;5.57;;